createdAt,value
2022-12-28T00:00:17.376Z,10.37
2022-12-28T00:02:46.219Z,10.80
2022-12-28T00:05:14.915Z,8.90
2022-12-28T00:07:43.499Z,8.30
2022-12-28T00:10:12.218Z,8.90
2022-12-28T00:12:40.837Z,8.20
2022-12-28T00:15:12.107Z,7.33
2022-12-28T00:17:40.716Z,7.03
2022-12-28T00:20:10.228Z,7.13
2022-12-28T00:22:38.778Z,6.40
2022-12-28T00:25:08.649Z,7.20
2022-12-28T00:27:37.331Z,7.37
2022-12-28T00:30:06.574Z,7.23
2022-12-28T00:32:37.732Z,7.83
2022-12-28T00:35:07.300Z,8.10
2022-12-28T00:37:36.590Z,7.83
2022-12-28T00:40:07.555Z,7.67
2022-12-28T00:42:36.336Z,7.70
2022-12-28T00:45:06.085Z,8.43
2022-12-28T00:47:34.550Z,7.67
2022-12-28T00:50:04.724Z,8.57
2022-12-28T00:52:33.531Z,7.97
2022-12-28T00:55:02.070Z,7.37
2022-12-28T00:57:33.982Z,7.00
2022-12-28T01:00:02.566Z,7.07
2022-12-28T01:02:31.327Z,6.87
2022-12-28T01:05:00.168Z,6.87
2022-12-28T01:07:30.245Z,5.93
2022-12-28T01:09:58.905Z,6.20
2022-12-28T01:12:29.097Z,6.43
2022-12-28T01:15:00.434Z,6.37
2022-12-28T01:17:30.006Z,6.50
2022-12-28T01:19:58.637Z,6.40
2022-12-28T01:22:27.766Z,6.07
2022-12-28T01:24:57.776Z,6.57
2022-12-28T01:27:26.394Z,6.40
2022-12-28T01:29:55.982Z,6.17
2022-12-28T01:32:24.690Z,6.37
2022-12-28T01:34:53.315Z,7.03
2022-12-28T01:37:21.937Z,6.60
2022-12-28T01:39:50.468Z,6.80
2022-12-28T01:42:21.677Z,6.90
2022-12-28T01:44:51.372Z,6.80
2022-12-28T01:47:25.194Z,7.10
2022-12-28T01:50:01.129Z,7.57
2022-12-28T01:52:35.362Z,6.63
2022-12-28T01:55:10.316Z,7.00
2022-12-28T01:57:44.635Z,7.23
2022-12-28T02:00:15.601Z,7.00
2022-12-28T02:02:52.292Z,7.17
2022-12-28T02:05:23.627Z,7.70
2022-12-28T02:07:57.029Z,7.60
2022-12-28T02:10:43.411Z,8.03
2022-12-28T02:13:16.985Z,8.00
2022-12-28T02:15:46.536Z,7.50
2022-12-28T02:18:16.740Z,7.60
2022-12-28T02:21:18.796Z,8.30
2022-12-28T02:24:04.965Z,8.33
2022-12-28T02:26:59.252Z,8.37
2022-12-28T02:29:54.294Z,8.43
2022-12-28T02:32:31.537Z,8.90
2022-12-28T02:35:06.867Z,9.00
2022-12-28T02:37:41.272Z,9.50
2022-12-28T02:40:14.896Z,9.40
2022-12-28T02:42:44.583Z,9.60
2022-12-28T02:48:28.607Z,9.53
2022-12-28T02:51:06.700Z,10.50
2022-12-28T02:53:58.076Z,10.93
2022-12-28T02:56:38.659Z,11.47
2022-12-28T02:59:31.689Z,10.63
2022-12-28T03:02:24.712Z,11.47
2022-12-28T03:05:07.471Z,11.07
2022-12-28T03:08:01.352Z,11.97
2022-12-28T03:10:34.700Z,11.50
2022-12-28T03:13:31.251Z,11.07
2022-12-28T03:16:05.874Z,11.17
2022-12-28T03:18:59.022Z,11.20
2022-12-28T03:21:50.152Z,11.30
2022-12-28T03:24:38.130Z,11.03
2022-12-28T03:27:28.606Z,11.63
2022-12-28T03:30:21.115Z,11.57
2022-12-28T03:32:51.043Z,11.27
2022-12-28T03:35:22.208Z,12.50
2022-12-28T03:37:58.639Z,13.23
2022-12-28T03:40:35.362Z,12.33
2022-12-28T03:43:33.765Z,12.23
2022-12-28T03:46:10.836Z,12.53
2022-12-28T03:48:43.079Z,12.70
2022-12-28T03:51:12.690Z,12.63
2022-12-28T03:53:44.665Z,13.00
2022-12-28T03:56:18.231Z,12.50
2022-12-28T03:58:47.802Z,12.47
2022-12-28T04:01:18.434Z,12.70
2022-12-28T04:03:48.240Z,12.47
2022-12-28T04:06:18.943Z,12.60
2022-12-28T04:08:49.609Z,12.57
2022-12-28T04:11:18.222Z,11.87
2022-12-28T04:13:51.404Z,12.60
2022-12-28T04:16:20.741Z,12.37
2022-12-28T04:18:49.409Z,13.27
2022-12-28T04:21:18.026Z,12.77
2022-12-28T04:23:48.870Z,13.00
2022-12-28T04:26:20.291Z,12.60
2022-12-28T04:28:50.871Z,13.33
2022-12-28T04:31:37.145Z,12.30
2022-12-28T04:34:09.406Z,12.47
2022-12-28T04:36:42.695Z,12.90
2022-12-28T04:39:17.179Z,13.07
2022-12-28T04:41:45.790Z,12.43
2022-12-28T04:44:14.340Z,12.67
2022-12-28T04:46:42.894Z,12.47
2022-12-28T04:49:11.460Z,12.47
2022-12-28T04:51:39.947Z,12.67
2022-12-28T04:54:08.518Z,12.13
2022-12-28T04:56:38.641Z,12.63
2022-12-28T04:59:07.270Z,12.10
2022-12-28T05:01:36.325Z,12.67
2022-12-28T05:04:05.077Z,11.87
2022-12-28T05:06:33.604Z,11.53
2022-12-28T05:09:02.411Z,11.60
2022-12-28T05:11:32.029Z,11.67
2022-12-28T05:14:01.995Z,11.33
2022-12-28T05:16:30.943Z,11.30
2022-12-28T05:18:59.788Z,10.83
2022-12-28T05:21:29.724Z,11.97
2022-12-28T05:23:58.752Z,11.77
2022-12-28T05:26:29.066Z,11.43
2022-12-28T05:28:59.019Z,11.07
2022-12-28T05:31:29.711Z,11.20
2022-12-28T05:33:58.389Z,11.80
2022-12-28T05:36:28.724Z,11.40
2022-12-28T05:38:58.347Z,10.43
2022-12-28T05:41:28.603Z,10.80
2022-12-28T05:43:58.085Z,10.53
2022-12-28T05:46:29.737Z,10.63
2022-12-28T05:48:58.984Z,10.40
2022-12-28T05:51:29.403Z,10.43
2022-12-28T05:53:59.530Z,10.43
2022-12-28T05:56:30.614Z,10.50
2022-12-28T05:59:00.711Z,11.13
2022-12-28T06:01:32.733Z,11.13
2022-12-28T06:04:03.267Z,9.83
2022-12-28T06:06:32.905Z,10.20
2022-12-28T06:09:01.988Z,10.10
2022-12-28T06:11:31.491Z,9.90
2022-12-28T06:14:00.573Z,10.17
2022-12-28T06:16:32.670Z,10.63
2022-12-28T06:19:01.336Z,10.03
2022-12-28T06:21:31.555Z,10.03
2022-12-28T06:24:01.583Z,9.77
2022-12-28T06:26:32.230Z,10.60
2022-12-28T06:29:02.010Z,10.10
2022-12-28T06:31:33.920Z,10.80
2022-12-28T06:34:04.060Z,10.57
2022-12-28T06:36:34.891Z,10.27
2022-12-28T06:39:05.161Z,10.97
2022-12-28T06:41:34.060Z,9.97
2022-12-28T06:44:03.011Z,10.10
2022-12-28T06:46:33.074Z,11.27
2022-12-28T06:49:01.970Z,10.50
2022-12-28T06:51:32.980Z,10.07
2022-12-28T06:54:01.604Z,10.10
2022-12-28T06:56:32.064Z,9.93
2022-12-28T06:59:03.838Z,10.03
2022-12-28T07:01:36.478Z,9.83
2022-12-28T07:04:07.612Z,9.90
2022-12-28T07:06:38.420Z,10.27
2022-12-28T07:09:09.298Z,10.17
2022-12-28T07:11:38.479Z,10.43
2022-12-28T07:14:07.226Z,9.87
2022-12-28T07:19:04.940Z,10.07
2022-12-28T07:21:36.017Z,10.10
2022-12-28T07:24:06.180Z,9.90
2022-12-28T07:26:37.110Z,10.17
2022-12-28T07:29:08.407Z,10.10
2022-12-28T07:31:45.337Z,10.10
2022-12-28T07:34:16.217Z,9.60
2022-12-28T07:36:45.023Z,9.93
2022-12-28T07:39:13.713Z,9.10
2022-12-28T07:41:42.313Z,10.37
2022-12-28T07:44:11.937Z,9.83
2022-12-28T07:46:42.055Z,9.97
2022-12-28T07:49:10.636Z,9.63
2022-12-28T07:51:40.613Z,9.67
2022-12-28T07:54:09.233Z,9.87
2022-12-28T07:59:07.272Z,9.73
2022-12-28T08:01:37.434Z,10.30
2022-12-28T08:04:10.343Z,9.47
2022-12-28T08:06:41.926Z,10.13
2022-12-28T08:09:12.744Z,10.53
2022-12-28T08:11:43.552Z,11.00
2022-12-28T08:14:13.229Z,10.67
2022-12-28T08:16:43.367Z,10.33
2022-12-28T08:19:13.947Z,10.90
2022-12-28T08:21:44.522Z,11.37
2022-12-28T08:24:16.594Z,11.17
2022-12-28T08:26:46.002Z,11.23
2022-12-28T08:29:19.280Z,11.43
2022-12-28T08:31:48.694Z,10.60
2022-12-28T08:34:20.911Z,10.30
2022-12-28T08:36:49.802Z,11.40
2022-12-28T08:39:18.351Z,10.90
2022-12-28T08:41:46.995Z,10.63
2022-12-28T08:44:15.640Z,10.50
2022-12-28T08:46:44.398Z,10.67
2022-12-28T08:49:13.201Z,10.87
2022-12-28T08:51:43.946Z,10.70
2022-12-28T08:54:14.916Z,10.17
2022-12-28T08:56:45.080Z,10.80
2022-12-28T08:59:15.682Z,10.50
2022-12-28T09:01:45.166Z,11.03
2022-12-28T09:04:16.273Z,10.20
2022-12-28T09:06:46.591Z,10.47
2022-12-28T09:09:17.580Z,9.90
2022-12-28T09:11:47.030Z,9.87
2022-12-28T09:14:23.129Z,9.97
2022-12-28T09:16:52.962Z,9.83
2022-12-28T09:19:22.160Z,9.50
2022-12-28T09:21:55.384Z,9.57
2022-12-28T09:24:24.743Z,9.47
2022-12-28T09:26:54.858Z,9.80
2022-12-28T09:29:23.571Z,9.17
2022-12-28T09:31:52.219Z,9.07
2022-12-28T09:34:37.795Z,9.00
2022-12-28T09:37:09.243Z,8.60
2022-12-28T09:39:37.978Z,8.13
2022-12-28T09:42:12.372Z,8.63
2022-12-28T09:44:56.170Z,8.30
2022-12-28T09:47:37.019Z,8.83
2022-12-28T09:50:29.844Z,8.47
2022-12-28T09:53:24.317Z,7.90
2022-12-28T09:56:01.288Z,8.07
2022-12-28T09:58:32.068Z,7.43
2022-12-28T10:01:03.833Z,7.40
2022-12-28T10:03:37.381Z,7.70
2022-12-28T10:06:12.562Z,7.70
2022-12-28T10:08:45.351Z,7.50
2022-12-28T10:11:18.468Z,7.73
2022-12-28T10:13:55.540Z,7.70
2022-12-28T10:16:26.517Z,7.50
2022-12-28T10:18:55.353Z,8.10
2022-12-28T10:21:32.425Z,7.40
2022-12-28T10:26:57.562Z,8.27
2022-12-28T10:29:27.343Z,8.17
2022-12-28T10:32:02.132Z,7.40
2022-12-28T10:34:34.009Z,7.70
2022-12-28T10:37:14.493Z,7.30
2022-12-28T10:39:53.472Z,7.37
2022-12-28T10:42:26.199Z,6.90
2022-12-28T10:44:58.519Z,6.97
2022-12-28T10:47:31.743Z,7.10
2022-12-28T10:50:36.126Z,6.77
2022-12-28T10:52:58.306Z,7.87
2022-12-28T10:55:34.077Z,7.27
2022-12-28T10:58:31.759Z,6.23
2022-12-28T11:01:05.375Z,7.00
2022-12-28T11:03:37.608Z,6.80
2022-12-28T11:06:14.932Z,6.80
2022-12-28T11:08:45.597Z,7.00
2022-12-28T11:11:25.043Z,6.80
2022-12-28T11:13:58.149Z,6.40
2022-12-28T11:16:27.098Z,6.33
2022-12-28T11:18:56.157Z,6.40
2022-12-28T11:21:24.824Z,6.40
2022-12-28T11:23:54.035Z,5.90
2022-12-28T11:26:24.385Z,5.80
2022-12-28T11:28:54.109Z,6.00
2022-12-28T11:31:29.061Z,5.73
2022-12-28T11:34:02.481Z,6.07
2022-12-28T11:36:32.656Z,5.20
2022-12-28T11:39:48.109Z,5.57
2022-12-28T11:42:49.743Z,4.47
2022-12-28T11:45:57.151Z,4.30
2022-12-28T11:48:51.568Z,4.67
2022-12-28T11:51:22.448Z,4.93
2022-12-28T11:53:53.547Z,4.40
2022-12-28T11:56:23.154Z,4.10
2022-12-28T11:59:22.059Z,3.80
2022-12-28T12:01:55.861Z,3.90
2022-12-28T12:04:42.357Z,3.63
2022-12-28T12:07:43.565Z,3.30
2022-12-28T12:10:35.181Z,3.50
2022-12-28T12:13:23.939Z,3.20
2022-12-28T12:15:53.601Z,3.30
2022-12-28T12:18:25.357Z,2.87
2022-12-28T12:21:01.323Z,3.20
2022-12-28T12:23:43.984Z,3.00
2022-12-28T12:26:27.635Z,3.47
2022-12-28T12:29:01.055Z,3.20
2022-12-28T12:31:34.245Z,2.83
2022-12-28T12:34:17.585Z,2.97
2022-12-28T12:37:30.159Z,2.80
2022-12-28T12:40:17.074Z,2.93
2022-12-28T12:42:57.529Z,3.23
2022-12-28T12:45:33.770Z,3.07
2022-12-28T12:48:17.465Z,3.33
2022-12-28T12:51:11.749Z,3.10
2022-12-28T12:53:59.794Z,3.70
2022-12-28T12:56:41.509Z,3.90
2022-12-28T12:59:26.127Z,3.00
2022-12-28T13:02:05.098Z,3.00
2022-12-28T13:04:36.578Z,2.90
2022-12-28T13:07:07.497Z,3.23
2022-12-28T13:09:38.173Z,3.20
2022-12-28T13:12:15.659Z,3.30
2022-12-28T13:14:46.786Z,3.00
2022-12-28T13:17:19.344Z,3.03
2022-12-28T13:19:47.997Z,3.30
2022-12-28T13:22:30.116Z,2.90
2022-12-28T13:25:00.252Z,2.73
2022-12-28T13:27:33.267Z,3.70
2022-12-28T13:30:03.114Z,4.60
2022-12-28T13:32:38.282Z,3.23
2022-12-28T13:35:19.432Z,3.43
2022-12-28T13:38:02.634Z,3.00
2022-12-28T13:40:34.080Z,3.60
2022-12-28T13:43:35.406Z,3.03
2022-12-28T13:46:09.257Z,3.23
2022-12-28T13:48:41.149Z,3.50
2022-12-28T13:51:12.005Z,2.90
2022-12-28T13:53:41.035Z,3.30
2022-12-28T13:56:14.976Z,3.33
2022-12-28T13:58:48.286Z,3.20
2022-12-28T14:01:21.083Z,3.40
2022-12-28T14:03:50.381Z,3.27
2022-12-28T14:06:20.553Z,3.70
2022-12-28T14:08:50.692Z,3.20
2022-12-28T14:11:21.151Z,3.50
2022-12-28T14:13:50.433Z,4.27
2022-12-28T14:16:20.389Z,3.50
2022-12-28T14:18:49.383Z,3.20
2022-12-28T14:21:17.920Z,3.17
2022-12-28T14:23:46.444Z,3.10
2022-12-28T14:26:23.748Z,3.30
2022-12-28T14:28:54.742Z,3.50
2022-12-28T14:31:28.229Z,3.53
2022-12-28T14:33:58.686Z,3.50
2022-12-28T14:36:31.572Z,3.03
2022-12-28T14:39:05.053Z,3.30
2022-12-28T14:41:40.569Z,3.20
2022-12-28T14:44:17.605Z,3.40
2022-12-28T14:46:46.464Z,3.43
2022-12-28T14:49:34.454Z,3.30
2022-12-28T14:52:35.141Z,3.10
2022-12-28T14:55:22.757Z,3.40
2022-12-28T14:57:55.976Z,3.27
2022-12-28T15:00:28.103Z,3.07
2022-12-28T15:02:57.922Z,3.30
2022-12-28T15:05:37.804Z,3.33
2022-12-28T15:08:07.195Z,3.30
2022-12-28T15:10:39.091Z,3.13
2022-12-28T15:13:09.473Z,3.30
2022-12-28T15:15:38.110Z,3.13
2022-12-28T15:18:07.340Z,3.10
2022-12-28T15:20:37.997Z,3.13
2022-12-28T15:23:06.792Z,3.50
2022-12-28T15:25:36.484Z,3.37
2022-12-28T15:28:05.573Z,3.20
2022-12-28T15:30:35.576Z,3.20
2022-12-28T15:33:04.304Z,3.07
2022-12-28T15:35:34.022Z,2.97
2022-12-28T15:38:02.675Z,2.90
2022-12-28T15:40:31.326Z,2.90
2022-12-28T15:42:59.874Z,3.10
2022-12-28T15:45:28.513Z,2.70
2022-12-28T15:47:58.599Z,2.80
2022-12-28T15:50:27.125Z,3.33
2022-12-28T15:52:55.782Z,2.97
2022-12-28T15:55:24.456Z,2.77
2022-12-28T15:57:53.015Z,2.57
2022-12-28T16:00:22.025Z,2.70
2022-12-28T16:02:50.936Z,3.10
2022-12-28T16:05:21.276Z,2.73
2022-12-28T16:07:49.989Z,3.07
2022-12-28T16:10:19.079Z,2.80
2022-12-28T16:12:47.531Z,3.23
2022-12-28T16:15:16.072Z,3.20
2022-12-28T16:17:55.032Z,3.10
2022-12-28T16:20:27.001Z,3.17
2022-12-28T16:22:55.603Z,2.93
2022-12-28T16:25:24.208Z,2.97
2022-12-28T16:27:52.797Z,3.33
2022-12-28T16:30:21.380Z,3.23
2022-12-28T16:32:50.048Z,3.03
2022-12-28T16:35:18.629Z,3.20
2022-12-28T16:37:48.529Z,3.37
2022-12-28T16:40:17.265Z,3.47
2022-12-28T16:42:46.004Z,3.20
2022-12-28T16:45:15.152Z,3.10
2022-12-28T16:47:45.084Z,3.13
2022-12-28T16:50:13.913Z,3.10
2022-12-28T16:52:42.547Z,3.50
2022-12-28T16:55:12.696Z,3.70
2022-12-28T16:57:41.305Z,3.43
2022-12-28T17:00:10.915Z,3.67
2022-12-28T17:02:39.766Z,3.27
2022-12-28T17:05:09.229Z,3.37
2022-12-28T17:07:37.770Z,4.07
2022-12-28T17:10:06.965Z,3.67
2022-12-28T17:12:37.058Z,3.50
2022-12-28T17:15:06.521Z,3.30
2022-12-28T17:17:35.080Z,3.33
2022-12-28T17:20:03.741Z,3.33
2022-12-28T17:22:33.459Z,3.37
2022-12-28T17:25:02.078Z,2.90
2022-12-28T17:27:30.648Z,3.30
2022-12-28T17:30:01.119Z,3.47
2022-12-28T17:32:29.779Z,3.17
2022-12-28T17:34:58.516Z,3.30
2022-12-28T17:37:27.244Z,3.30
2022-12-28T17:39:56.301Z,3.17
2022-12-28T17:42:25.160Z,3.30
2022-12-28T17:44:53.697Z,3.20
2022-12-28T17:47:23.657Z,3.23
2022-12-28T17:49:52.248Z,3.07
2022-12-28T17:52:22.361Z,3.10
2022-12-28T17:54:51.404Z,3.10
2022-12-28T17:57:19.893Z,2.90
2022-12-28T17:59:48.342Z,3.20
2022-12-28T18:02:16.945Z,3.30
2022-12-28T18:04:48.119Z,2.80
2022-12-28T18:07:16.639Z,3.27
2022-12-28T18:09:45.161Z,3.03
2022-12-28T18:12:13.648Z,2.93
2022-12-28T18:14:42.146Z,2.90
2022-12-28T18:17:10.812Z,3.10
2022-12-28T18:19:39.561Z,2.90
2022-12-28T18:22:09.483Z,2.80
2022-12-28T18:24:38.109Z,2.87
2022-12-28T18:27:06.633Z,2.87
2022-12-28T18:29:35.179Z,2.90
2022-12-28T18:32:03.698Z,2.80
2022-12-28T18:34:32.261Z,2.80
2022-12-28T18:37:00.817Z,3.10
2022-12-28T18:39:31.121Z,2.60
2022-12-28T18:41:59.824Z,2.80
2022-12-28T18:44:28.505Z,2.73
2022-12-28T18:46:57.123Z,2.80
2022-12-28T18:49:26.125Z,2.60
2022-12-28T18:51:55.493Z,2.43
2022-12-28T18:54:24.027Z,2.53
2022-12-28T18:56:54.262Z,2.70
2022-12-28T18:59:22.787Z,2.53
2022-12-28T19:02:09.110Z,2.50
2022-12-28T19:04:39.289Z,2.60
2022-12-28T19:07:07.877Z,2.80
2022-12-28T19:09:36.724Z,2.60
2022-12-28T19:12:07.052Z,2.30
2022-12-28T19:14:35.650Z,2.70
2022-12-28T19:17:04.374Z,2.80
2022-12-28T19:19:32.949Z,2.70
2022-12-28T19:22:01.500Z,2.77
2022-12-28T19:24:30.338Z,2.60
2022-12-28T19:26:58.873Z,2.83
2022-12-28T19:29:30.274Z,3.20
2022-12-28T19:31:59.214Z,3.00
2022-12-28T19:34:28.040Z,3.23
2022-12-28T19:36:56.658Z,3.30
2022-12-28T19:39:25.457Z,3.10
2022-12-28T19:41:54.022Z,3.43
2022-12-28T19:44:22.681Z,3.13
2022-12-28T19:46:54.113Z,2.87
2022-12-28T19:49:22.980Z,3.27
2022-12-28T19:51:51.722Z,3.10
2022-12-28T19:54:20.429Z,3.30
2022-12-28T19:56:48.882Z,3.10
2022-12-28T19:59:17.483Z,3.13
2022-12-28T20:01:46.184Z,3.10
2022-12-28T20:04:16.210Z,3.10
2022-12-28T20:06:45.599Z,3.20
2022-12-28T20:09:15.371Z,2.90
2022-12-28T20:11:45.099Z,3.03
2022-12-28T20:14:16.405Z,2.80
2022-12-28T20:16:51.843Z,2.70
2022-12-28T20:19:21.954Z,2.83
2022-12-28T20:21:50.730Z,3.40
2022-12-28T20:24:21.749Z,2.90
2022-12-28T20:26:51.534Z,3.27
2022-12-28T20:29:22.458Z,3.00
2022-12-28T20:31:51.933Z,2.90
2022-12-28T20:34:22.013Z,3.10
2022-12-28T20:36:51.238Z,3.30
2022-12-28T20:39:19.815Z,3.00
2022-12-28T20:42:05.542Z,3.27
2022-12-28T20:44:34.370Z,3.40
2022-12-28T20:47:03.328Z,3.50
2022-12-28T20:49:34.067Z,3.00
2022-12-28T20:52:02.646Z,3.50
2022-12-28T20:54:31.245Z,3.00
2022-12-28T20:56:59.864Z,3.40
2022-12-28T20:59:28.638Z,3.40
2022-12-28T21:01:57.311Z,3.20
2022-12-28T21:04:26.121Z,3.20
2022-12-28T21:06:56.533Z,3.43
2022-12-28T21:09:25.079Z,3.20
2022-12-28T21:11:53.615Z,3.30
2022-12-28T21:14:22.285Z,3.50
2022-12-28T21:16:51.015Z,3.30
2022-12-28T21:19:19.651Z,3.30
2022-12-28T21:21:49.681Z,3.20
2022-12-28T21:24:20.058Z,3.47
2022-12-28T21:26:48.637Z,3.70
2022-12-28T21:29:23.855Z,3.30
2022-12-28T21:31:54.633Z,3.40
2022-12-28T21:34:24.157Z,3.20
2022-12-28T21:36:52.788Z,3.00
2022-12-28T21:39:22.889Z,3.33
2022-12-28T21:41:51.632Z,3.33
2022-12-28T21:44:22.055Z,3.40
2022-12-28T21:46:52.069Z,3.20
2022-12-28T21:49:21.601Z,3.07
2022-12-28T21:51:50.514Z,3.27
2022-12-28T21:54:20.923Z,2.93
2022-12-28T21:56:53.918Z,3.10
2022-12-28T21:59:23.844Z,3.20
2022-12-28T22:02:10.875Z,3.13
2022-12-28T22:05:02.459Z,3.37
2022-12-28T22:07:32.216Z,2.90
2022-12-28T22:10:18.373Z,3.00
2022-12-28T22:12:48.367Z,3.10
2022-12-28T22:15:37.048Z,3.00
2022-12-28T22:18:07.710Z,3.00
2022-12-28T22:20:37.435Z,3.07
2022-12-28T22:23:07.191Z,2.90
2022-12-28T22:25:36.061Z,3.07
2022-12-28T22:28:07.118Z,2.90
2022-12-28T22:30:37.872Z,2.90
2022-12-28T22:33:07.013Z,2.80
2022-12-28T22:35:35.726Z,2.90
2022-12-28T22:38:04.177Z,2.60
2022-12-28T22:40:32.814Z,2.73
2022-12-28T22:43:01.505Z,2.57
2022-12-28T22:45:31.582Z,2.40
2022-12-28T22:48:00.424Z,2.73
2022-12-28T22:50:29.882Z,2.50
2022-12-28T22:52:58.612Z,2.63
2022-12-28T22:55:27.127Z,2.80
2022-12-28T22:57:55.669Z,2.60
2022-12-28T23:00:24.317Z,2.50
2022-12-28T23:02:54.425Z,2.60
2022-12-28T23:05:23.148Z,2.40
2022-12-28T23:07:51.782Z,2.47
2022-12-28T23:10:20.390Z,2.30
2022-12-28T23:12:48.892Z,2.40
2022-12-28T23:15:18.706Z,2.50
2022-12-28T23:17:48.486Z,2.17
2022-12-28T23:20:36.350Z,2.37
2022-12-28T23:23:22.720Z,2.03
2022-12-28T23:26:08.754Z,2.13
2022-12-28T23:28:37.398Z,2.07
2022-12-28T23:31:06.342Z,2.30
2022-12-28T23:33:36.753Z,2.03
2022-12-28T23:36:07.512Z,2.50
2022-12-28T23:38:36.188Z,2.03
2022-12-28T23:41:25.283Z,2.17
2022-12-28T23:43:53.824Z,2.40
2022-12-28T23:46:22.303Z,2.20
2022-12-28T23:48:50.858Z,2.37
2022-12-28T23:51:20.785Z,2.00
2022-12-28T23:53:49.514Z,2.20
2022-12-28T23:56:18.140Z,2.00
2022-12-28T23:58:46.727Z,2.10
